sensor_id;sensor_type;location;lat;lon;timestamp;P1;durP1;ratioP1;P2;durP2;ratioP2
68475;SDS011;55464;48.266;14.188;2023-04-08T00:00:32;16.52;;;9.10;;
68475;SDS011;55464;48.266;14.188;2023-04-08T00:02:58;13.38;;;8.57;;
68475;SDS011;55464;48.266;14.188;2023-04-08T00:05:23;17.20;;;9.38;;
68475;SDS011;55464;48.266;14.188;2023-04-08T00:07:48;17.05;;;9.27;;
68475;SDS011;55464;48.266;14.188;2023-04-08T00:10:14;14.10;;;8.82;;
68475;SDS011;55464;48.266;14.188;2023-04-08T00:12:39;16.33;;;9.13;;
68475;SDS011;55464;48.266;14.188;2023-04-08T00:15:05;15.38;;;9.40;;
68475;SDS011;55464;48.266;14.188;2023-04-08T00:17:31;14.70;;;8.82;;
68475;SDS011;55464;48.266;14.188;2023-04-08T00:19:57;18.23;;;9.95;;
68475;SDS011;55464;48.266;14.188;2023-04-08T00:22:22;14.05;;;8.63;;
68475;SDS011;55464;48.266;14.188;2023-04-08T00:24:50;15.63;;;9.68;;
68475;SDS011;55464;48.266;14.188;2023-04-08T00:27:15;16.73;;;9.90;;
68475;SDS011;55464;48.266;14.188;2023-04-08T00:29:41;16.05;;;8.93;;
68475;SDS011;55464;48.266;14.188;2023-04-08T00:32:06;13.05;;;8.68;;
68475;SDS011;55464;48.266;14.188;2023-04-08T00:34:31;15.82;;;9.48;;
68475;SDS011;55464;48.266;14.188;2023-04-08T00:36:57;13.32;;;8.98;;
68475;SDS011;55464;48.266;14.188;2023-04-08T00:39:23;15.40;;;9.18;;
68475;SDS011;55464;48.266;14.188;2023-04-08T00:41:48;13.48;;;8.88;;
68475;SDS011;55464;48.266;14.188;2023-04-08T00:44:13;14.07;;;9.05;;
68475;SDS011;55464;48.266;14.188;2023-04-08T00:46:39;15.73;;;9.48;;
68475;SDS011;55464;48.266;14.188;2023-04-08T00:49:05;16.17;;;9.98;;
68475;SDS011;55464;48.266;14.188;2023-04-08T00:51:31;16.88;;;10.50;;
68475;SDS011;55464;48.266;14.188;2023-04-08T00:53:57;16.17;;;10.05;;
68475;SDS011;55464;48.266;14.188;2023-04-08T00:56:24;15.50;;;9.88;;
68475;SDS011;55464;48.266;14.188;2023-04-08T00:58:51;15.88;;;9.48;;
68475;SDS011;55464;48.266;14.188;2023-04-08T01:04:06;17.13;;;10.98;;
68475;SDS011;55464;48.266;14.188;2023-04-08T01:09:24;19.23;;;10.95;;
68475;SDS011;55464;48.266;14.188;2023-04-08T01:11:53;21.23;;;11.93;;
68475;SDS011;55464;48.266;14.188;2023-04-08T01:14:22;17.63;;;11.57;;
68475;SDS011;55464;48.266;14.188;2023-04-08T01:16:50;17.33;;;11.35;;
68475;SDS011;55464;48.266;14.188;2023-04-08T01:21:51;16.00;;;11.15;;
68475;SDS011;55464;48.266;14.188;2023-04-08T01:24:21;17.30;;;10.93;;
68475;SDS011;55464;48.266;14.188;2023-04-08T01:26:51;18.45;;;11.52;;
68475;SDS011;55464;48.266;14.188;2023-04-08T01:29:16;20.88;;;10.98;;
68475;SDS011;55464;48.266;14.188;2023-04-08T01:31:43;15.82;;;10.60;;
68475;SDS011;55464;48.266;14.188;2023-04-08T01:34:10;16.50;;;10.77;;
68475;SDS011;55464;48.266;14.188;2023-04-08T01:36:38;19.63;;;11.88;;
68475;SDS011;55464;48.266;14.188;2023-04-08T01:39:05;19.50;;;11.30;;
68475;SDS011;55464;48.266;14.188;2023-04-08T01:41:32;21.13;;;11.55;;
68475;SDS011;55464;48.266;14.188;2023-04-08T01:44:01;18.45;;;10.70;;
68475;SDS011;55464;48.266;14.188;2023-04-08T01:46:28;18.50;;;11.20;;
68475;SDS011;55464;48.266;14.188;2023-04-08T01:48:54;16.60;;;11.32;;
68475;SDS011;55464;48.266;14.188;2023-04-08T01:51:21;19.13;;;11.23;;
68475;SDS011;55464;48.266;14.188;2023-04-08T01:53:47;15.55;;;10.52;;
68475;SDS011;55464;48.266;14.188;2023-04-08T01:56:12;19.05;;;10.85;;
68475;SDS011;55464;48.266;14.188;2023-04-08T01:58:40;20.55;;;10.63;;
68475;SDS011;55464;48.266;14.188;2023-04-08T02:01:11;18.65;;;10.05;;
68475;SDS011;55464;48.266;14.188;2023-04-08T02:03:41;16.35;;;9.75;;
68475;SDS011;55464;48.266;14.188;2023-04-08T02:06:08;16.48;;;10.50;;
68475;SDS011;55464;48.266;14.188;2023-04-08T02:08:34;17.95;;;11.02;;
68475;SDS011;55464;48.266;14.188;2023-04-08T02:11:00;16.67;;;10.75;;
68475;SDS011;55464;48.266;14.188;2023-04-08T02:13:26;16.33;;;10.73;;
68475;SDS011;55464;48.266;14.188;2023-04-08T02:15:56;17.27;;;10.15;;
68475;SDS011;55464;48.266;14.188;2023-04-08T02:18:30;19.70;;;11.35;;
68475;SDS011;55464;48.266;14.188;2023-04-08T02:21:02;19.08;;;10.75;;
68475;SDS011;55464;48.266;14.188;2023-04-08T02:23:35;20.52;;;10.82;;
68475;SDS011;55464;48.266;14.188;2023-04-08T02:26:03;17.98;;;11.02;;
68475;SDS011;55464;48.266;14.188;2023-04-08T02:28:37;16.15;;;10.07;;
68475;SDS011;55464;48.266;14.188;2023-04-08T02:31:04;15.55;;;11.18;;
68475;SDS011;55464;48.266;14.188;2023-04-08T02:33:32;18.10;;;11.57;;
68475;SDS011;55464;48.266;14.188;2023-04-08T02:35:59;15.77;;;10.85;;
68475;SDS011;55464;48.266;14.188;2023-04-08T02:38:27;18.13;;;10.45;;
68475;SDS011;55464;48.266;14.188;2023-04-08T02:40:54;16.15;;;10.35;;
68475;SDS011;55464;48.266;14.188;2023-04-08T02:43:20;20.05;;;10.75;;
68475;SDS011;55464;48.266;14.188;2023-04-08T02:45:46;16.90;;;10.55;;
68475;SDS011;55464;48.266;14.188;2023-04-08T02:48:11;17.42;;;11.05;;
68475;SDS011;55464;48.266;14.188;2023-04-08T02:50:37;16.55;;;10.00;;
68475;SDS011;55464;48.266;14.188;2023-04-08T02:53:03;16.95;;;10.95;;
68475;SDS011;55464;48.266;14.188;2023-04-08T02:55:28;17.95;;;11.18;;
68475;SDS011;55464;48.266;14.188;2023-04-08T02:57:54;16.88;;;10.07;;
68475;SDS011;55464;48.266;14.188;2023-04-08T03:00:19;18.33;;;10.57;;
68475;SDS011;55464;48.266;14.188;2023-04-08T03:02:45;14.63;;;9.88;;
68475;SDS011;55464;48.266;14.188;2023-04-08T03:05:10;17.60;;;11.60;;
68475;SDS011;55464;48.266;14.188;2023-04-08T03:07:36;17.63;;;11.13;;
68475;SDS011;55464;48.266;14.188;2023-04-08T03:10:02;15.55;;;10.27;;
68475;SDS011;55464;48.266;14.188;2023-04-08T03:12:28;16.80;;;10.80;;
68475;SDS011;55464;48.266;14.188;2023-04-08T03:14:57;19.58;;;10.93;;
68475;SDS011;55464;48.266;14.188;2023-04-08T03:17:22;16.48;;;10.65;;
68475;SDS011;55464;48.266;14.188;2023-04-08T03:19:47;18.23;;;10.50;;
68475;SDS011;55464;48.266;14.188;2023-04-08T03:22:13;18.35;;;10.70;;
68475;SDS011;55464;48.266;14.188;2023-04-08T03:24:38;19.10;;;10.50;;
68475;SDS011;55464;48.266;14.188;2023-04-08T03:27:04;19.33;;;11.05;;
68475;SDS011;55464;48.266;14.188;2023-04-08T03:29:30;13.80;;;8.90;;
68475;SDS011;55464;48.266;14.188;2023-04-08T03:31:55;19.40;;;10.85;;
68475;SDS011;55464;48.266;14.188;2023-04-08T03:34:21;17.45;;;10.40;;
68475;SDS011;55464;48.266;14.188;2023-04-08T03:36:46;13.98;;;10.07;;
68475;SDS011;55464;48.266;14.188;2023-04-08T03:39:12;16.60;;;10.50;;
68475;SDS011;55464;48.266;14.188;2023-04-08T03:41:37;17.73;;;10.38;;
68475;SDS011;55464;48.266;14.188;2023-04-08T03:44:02;18.42;;;10.07;;
68475;SDS011;55464;48.266;14.188;2023-04-08T03:46:28;23.05;;;12.23;;
68475;SDS011;55464;48.266;14.188;2023-04-08T03:48:53;24.20;;;11.40;;
68475;SDS011;55464;48.266;14.188;2023-04-08T03:51:19;22.13;;;11.82;;
68475;SDS011;55464;48.266;14.188;2023-04-08T03:53:44;14.27;;;9.23;;
68475;SDS011;55464;48.266;14.188;2023-04-08T03:56:09;16.67;;;10.70;;
68475;SDS011;55464;48.266;14.188;2023-04-08T03:58:35;20.17;;;11.23;;
68475;SDS011;55464;48.266;14.188;2023-04-08T04:01:00;14.18;;;9.60;;
68475;SDS011;55464;48.266;14.188;2023-04-08T04:03:26;16.65;;;10.93;;
68475;SDS011;55464;48.266;14.188;2023-04-08T04:05:51;16.33;;;9.15;;
68475;SDS011;55464;48.266;14.188;2023-04-08T04:08:17;17.33;;;10.18;;
68475;SDS011;55464;48.266;14.188;2023-04-08T04:10:42;16.90;;;9.82;;
68475;SDS011;55464;48.266;14.188;2023-04-08T04:13:08;18.60;;;11.02;;
68475;SDS011;55464;48.266;14.188;2023-04-08T04:15:36;18.17;;;10.70;;
68475;SDS011;55464;48.266;14.188;2023-04-08T04:18:03;24.52;;;11.48;;
68475;SDS011;55464;48.266;14.188;2023-04-08T04:20:28;19.48;;;11.45;;
68475;SDS011;55464;48.266;14.188;2023-04-08T04:22:54;16.98;;;10.82;;
68475;SDS011;55464;48.266;14.188;2023-04-08T04:25:20;17.45;;;10.80;;
68475;SDS011;55464;48.266;14.188;2023-04-08T04:27:45;20.23;;;10.75;;
68475;SDS011;55464;48.266;14.188;2023-04-08T04:30:13;17.08;;;9.98;;
68475;SDS011;55464;48.266;14.188;2023-04-08T04:32:40;15.77;;;10.57;;
68475;SDS011;55464;48.266;14.188;2023-04-08T04:35:11;17.48;;;9.80;;
68475;SDS011;55464;48.266;14.188;2023-04-08T04:37:37;15.15;;;10.55;;
68475;SDS011;55464;48.266;14.188;2023-04-08T04:40:03;15.88;;;10.60;;
68475;SDS011;55464;48.266;14.188;2023-04-08T04:42:29;14.45;;;10.95;;
68475;SDS011;55464;48.266;14.188;2023-04-08T04:44:55;14.63;;;10.43;;
68475;SDS011;55464;48.266;14.188;2023-04-08T04:47:20;14.40;;;9.63;;
68475;SDS011;55464;48.266;14.188;2023-04-08T04:49:45;14.80;;;9.27;;
68475;SDS011;55464;48.266;14.188;2023-04-08T04:52:11;11.25;;;8.15;;
68475;SDS011;55464;48.266;14.188;2023-04-08T04:54:37;12.00;;;8.63;;
68475;SDS011;55464;48.266;14.188;2023-04-08T04:57:02;12.77;;;6.93;;
68475;SDS011;55464;48.266;14.188;2023-04-08T04:59:27;8.30;;;6.32;;
68475;SDS011;55464;48.266;14.188;2023-04-08T05:01:53;8.45;;;5.93;;
68475;SDS011;55464;48.266;14.188;2023-04-08T05:04:21;9.63;;;5.95;;
68475;SDS011;55464;48.266;14.188;2023-04-08T05:06:47;9.63;;;5.55;;
68475;SDS011;55464;48.266;14.188;2023-04-08T05:09:12;9.82;;;5.80;;
68475;SDS011;55464;48.266;14.188;2023-04-08T05:11:38;10.27;;;5.20;;
68475;SDS011;55464;48.266;14.188;2023-04-08T05:14:03;9.57;;;5.38;;
68475;SDS011;55464;48.266;14.188;2023-04-08T05:16:28;7.03;;;5.60;;
68475;SDS011;55464;48.266;14.188;2023-04-08T05:18:54;12.73;;;5.50;;
68475;SDS011;55464;48.266;14.188;2023-04-08T05:21:19;6.40;;;5.05;;
68475;SDS011;55464;48.266;14.188;2023-04-08T05:23:45;6.63;;;4.43;;
68475;SDS011;55464;48.266;14.188;2023-04-08T05:26:10;6.95;;;4.68;;
68475;SDS011;55464;48.266;14.188;2023-04-08T05:28:35;10.80;;;5.93;;
68475;SDS011;55464;48.266;14.188;2023-04-08T05:31:01;8.30;;;5.05;;
68475;SDS011;55464;48.266;14.188;2023-04-08T05:33:26;8.30;;;4.85;;
68475;SDS011;55464;48.266;14.188;2023-04-08T05:35:52;5.20;;;4.20;;
68475;SDS011;55464;48.266;14.188;2023-04-08T05:38:19;5.55;;;4.32;;
68475;SDS011;55464;48.266;14.188;2023-04-08T05:40:45;6.60;;;4.50;;
68475;SDS011;55464;48.266;14.188;2023-04-08T05:43:10;7.28;;;4.28;;
68475;SDS011;55464;48.266;14.188;2023-04-08T05:45:35;5.95;;;4.10;;
68475;SDS011;55464;48.266;14.188;2023-04-08T05:48:01;6.55;;;3.80;;
68475;SDS011;55464;48.266;14.188;2023-04-08T05:50:26;4.95;;;3.35;;
68475;SDS011;55464;48.266;14.188;2023-04-08T05:52:53;4.35;;;3.47;;
68475;SDS011;55464;48.266;14.188;2023-04-08T05:55:18;5.68;;;3.67;;
68475;SDS011;55464;48.266;14.188;2023-04-08T05:57:43;5.25;;;3.78;;
68475;SDS011;55464;48.266;14.188;2023-04-08T06:00:09;6.65;;;3.15;;
68475;SDS011;55464;48.266;14.188;2023-04-08T06:02:35;4.07;;;3.15;;
68475;SDS011;55464;48.266;14.188;2023-04-08T06:05:01;5.85;;;3.78;;
68475;SDS011;55464;48.266;14.188;2023-04-08T06:07:27;7.45;;;3.15;;
68475;SDS011;55464;48.266;14.188;2023-04-08T06:09:53;4.00;;;3.08;;
68475;SDS011;55464;48.266;14.188;2023-04-08T06:12:19;3.85;;;3.03;;
68475;SDS011;55464;48.266;14.188;2023-04-08T06:14:45;4.22;;;3.08;;
68475;SDS011;55464;48.266;14.188;2023-04-08T06:17:10;5.75;;;3.13;;
68475;SDS011;55464;48.266;14.188;2023-04-08T06:19:36;2.92;;;2.63;;
68475;SDS011;55464;48.266;14.188;2023-04-08T06:22:01;3.92;;;3.10;;
68475;SDS011;55464;48.266;14.188;2023-04-08T06:24:27;4.30;;;2.70;;
68475;SDS011;55464;48.266;14.188;2023-04-08T06:26:53;4.93;;;2.60;;
68475;SDS011;55464;48.266;14.188;2023-04-08T06:29:20;2.78;;;2.40;;
68475;SDS011;55464;48.266;14.188;2023-04-08T06:31:47;2.75;;;2.42;;
68475;SDS011;55464;48.266;14.188;2023-04-08T06:34:12;4.63;;;2.75;;
68475;SDS011;55464;48.266;14.188;2023-04-08T06:36:38;3.15;;;2.70;;
68475;SDS011;55464;48.266;14.188;2023-04-08T06:39:03;3.22;;;2.50;;
68475;SDS011;55464;48.266;14.188;2023-04-08T06:41:29;4.38;;;2.80;;
68475;SDS011;55464;48.266;14.188;2023-04-08T06:43:54;5.32;;;3.20;;
68475;SDS011;55464;48.266;14.188;2023-04-08T06:46:20;4.45;;;3.00;;
68475;SDS011;55464;48.266;14.188;2023-04-08T06:48:45;7.55;;;4.47;;
68475;SDS011;55464;48.266;14.188;2023-04-08T06:51:11;4.43;;;3.53;;
68475;SDS011;55464;48.266;14.188;2023-04-08T06:53:36;5.47;;;3.75;;
68475;SDS011;55464;48.266;14.188;2023-04-08T06:56:01;4.20;;;3.75;;
68475;SDS011;55464;48.266;14.188;2023-04-08T06:58:27;6.18;;;3.80;;
68475;SDS011;55464;48.266;14.188;2023-04-08T07:00:53;6.05;;;4.00;;
68475;SDS011;55464;48.266;14.188;2023-04-08T07:03:22;5.43;;;3.20;;
68475;SDS011;55464;48.266;14.188;2023-04-08T07:05:48;6.18;;;3.50;;
68475;SDS011;55464;48.266;14.188;2023-04-08T07:08:13;5.13;;;3.85;;
68475;SDS011;55464;48.266;14.188;2023-04-08T07:10:38;4.05;;;3.53;;
68475;SDS011;55464;48.266;14.188;2023-04-08T07:13:04;4.85;;;3.97;;
68475;SDS011;55464;48.266;14.188;2023-04-08T07:15:29;4.72;;;4.05;;
68475;SDS011;55464;48.266;14.188;2023-04-08T07:17:55;5.25;;;4.10;;
68475;SDS011;55464;48.266;14.188;2023-04-08T07:20:21;6.55;;;3.90;;
68475;SDS011;55464;48.266;14.188;2023-04-08T07:22:47;5.65;;;3.95;;
68475;SDS011;55464;48.266;14.188;2023-04-08T07:25:13;5.30;;;3.83;;
68475;SDS011;55464;48.266;14.188;2023-04-08T07:27:38;5.85;;;3.58;;
68475;SDS011;55464;48.266;14.188;2023-04-08T07:30:04;4.20;;;3.78;;
68475;SDS011;55464;48.266;14.188;2023-04-08T07:32:30;6.45;;;3.80;;
68475;SDS011;55464;48.266;14.188;2023-04-08T07:34:57;5.35;;;3.60;;
68475;SDS011;55464;48.266;14.188;2023-04-08T07:37:23;4.10;;;3.70;;
68475;SDS011;55464;48.266;14.188;2023-04-08T07:39:48;5.03;;;3.78;;
68475;SDS011;55464;48.266;14.188;2023-04-08T07:42:13;5.78;;;4.25;;
68475;SDS011;55464;48.266;14.188;2023-04-08T07:44:39;7.78;;;5.00;;
68475;SDS011;55464;48.266;14.188;2023-04-08T07:47:04;7.07;;;5.22;;
68475;SDS011;55464;48.266;14.188;2023-04-08T07:49:30;7.80;;;5.20;;
68475;SDS011;55464;48.266;14.188;2023-04-08T07:51:55;8.32;;;5.20;;
68475;SDS011;55464;48.266;14.188;2023-04-08T07:54:21;6.97;;;5.68;;
68475;SDS011;55464;48.266;14.188;2023-04-08T07:56:47;9.18;;;6.57;;
68475;SDS011;55464;48.266;14.188;2023-04-08T07:59:12;9.68;;;6.95;;
68475;SDS011;55464;48.266;14.188;2023-04-08T08:01:37;10.35;;;7.05;;
68475;SDS011;55464;48.266;14.188;2023-04-08T08:04:03;13.25;;;7.60;;
68475;SDS011;55464;48.266;14.188;2023-04-08T08:06:28;14.20;;;8.32;;
68475;SDS011;55464;48.266;14.188;2023-04-08T08:08:56;11.00;;;8.38;;
68475;SDS011;55464;48.266;14.188;2023-04-08T08:11:22;10.95;;;8.05;;
68475;SDS011;55464;48.266;14.188;2023-04-08T08:13:48;12.35;;;8.65;;
68475;SDS011;55464;48.266;14.188;2023-04-08T08:16:13;12.35;;;8.98;;
68475;SDS011;55464;48.266;14.188;2023-04-08T08:18:39;12.50;;;8.10;;
68475;SDS011;55464;48.266;14.188;2023-04-08T08:21:05;12.95;;;9.35;;
68475;SDS011;55464;48.266;14.188;2023-04-08T08:23:31;14.43;;;9.13;;
68475;SDS011;55464;48.266;14.188;2023-04-08T08:26:06;12.45;;;9.30;;
68475;SDS011;55464;48.266;14.188;2023-04-08T08:28:36;15.63;;;9.80;;
68475;SDS011;55464;48.266;14.188;2023-04-08T08:31:02;13.70;;;9.63;;
68475;SDS011;55464;48.266;14.188;2023-04-08T08:33:28;14.75;;;10.20;;
68475;SDS011;55464;48.266;14.188;2023-04-08T08:35:53;14.57;;;10.07;;
68475;SDS011;55464;48.266;14.188;2023-04-08T08:38:19;13.73;;;8.40;;
68475;SDS011;55464;48.266;14.188;2023-04-08T08:40:45;12.68;;;8.07;;
68475;SDS011;55464;48.266;14.188;2023-04-08T08:43:11;10.15;;;7.38;;
68475;SDS011;55464;48.266;14.188;2023-04-08T08:45:42;8.80;;;7.18;;
68475;SDS011;55464;48.266;14.188;2023-04-08T08:48:08;11.48;;;6.70;;
68475;SDS011;55464;48.266;14.188;2023-04-08T08:50:34;8.27;;;6.30;;
68475;SDS011;55464;48.266;14.188;2023-04-08T08:53:00;10.07;;;6.65;;
68475;SDS011;55464;48.266;14.188;2023-04-08T08:55:28;8.45;;;6.68;;
68475;SDS011;55464;48.266;14.188;2023-04-08T08:57:55;8.07;;;6.73;;
68475;SDS011;55464;48.266;14.188;2023-04-08T09:00:29;8.30;;;6.72;;
68475;SDS011;55464;48.266;14.188;2023-04-08T09:02:57;8.75;;;6.00;;
68475;SDS011;55464;48.266;14.188;2023-04-08T09:05:55;8.18;;;6.50;;
68475;SDS011;55464;48.266;14.188;2023-04-08T09:08:32;9.65;;;6.38;;
68475;SDS011;55464;48.266;14.188;2023-04-08T09:11:17;8.23;;;6.95;;
68475;SDS011;55464;48.266;14.188;2023-04-08T09:13:45;7.95;;;6.25;;
68475;SDS011;55464;48.266;14.188;2023-04-08T09:16:12;9.80;;;7.38;;
68475;SDS011;55464;48.266;14.188;2023-04-08T09:18:40;11.98;;;7.13;;
68475;SDS011;55464;48.266;14.188;2023-04-08T09:21:08;8.05;;;6.57;;
68475;SDS011;55464;48.266;14.188;2023-04-08T09:26:11;12.98;;;7.32;;
68475;SDS011;55464;48.266;14.188;2023-04-08T09:28:38;8.90;;;7.15;;
68475;SDS011;55464;48.266;14.188;2023-04-08T09:33:52;8.15;;;6.68;;
68475;SDS011;55464;48.266;14.188;2023-04-08T09:36:19;10.55;;;8.15;;
68475;SDS011;55464;48.266;14.188;2023-04-08T09:38:44;11.43;;;7.65;;
68475;SDS011;55464;48.266;14.188;2023-04-08T09:41:14;12.55;;;8.20;;
68475;SDS011;55464;48.266;14.188;2023-04-08T09:43:48;14.43;;;8.20;;
68475;SDS011;55464;48.266;14.188;2023-04-08T09:46:24;11.38;;;7.97;;
68475;SDS011;55464;48.266;14.188;2023-04-08T09:48:57;12.13;;;8.45;;
68475;SDS011;55464;48.266;14.188;2023-04-08T09:51:38;10.77;;;8.55;;
68475;SDS011;55464;48.266;14.188;2023-04-08T09:54:13;10.68;;;7.95;;
68475;SDS011;55464;48.266;14.188;2023-04-08T09:56:43;12.70;;;8.82;;
68475;SDS011;55464;48.266;14.188;2023-04-08T09:59:16;12.68;;;8.80;;
68475;SDS011;55464;48.266;14.188;2023-04-08T10:01:49;11.65;;;9.00;;
68475;SDS011;55464;48.266;14.188;2023-04-08T10:04:17;13.05;;;9.30;;
68475;SDS011;55464;48.266;14.188;2023-04-08T10:06:46;13.35;;;9.38;;
68475;SDS011;55464;48.266;14.188;2023-04-08T10:09:21;12.95;;;9.25;;
68475;SDS011;55464;48.266;14.188;2023-04-08T10:11:47;15.38;;;10.75;;
68475;SDS011;55464;48.266;14.188;2023-04-08T10:14:14;14.93;;;9.93;;
68475;SDS011;55464;48.266;14.188;2023-04-08T10:16:40;15.65;;;10.68;;
68475;SDS011;55464;48.266;14.188;2023-04-08T10:27:41;13.40;;;10.63;;
68475;SDS011;55464;48.266;14.188;2023-04-08T10:33:08;13.98;;;10.50;;
68475;SDS011;55464;48.266;14.188;2023-04-08T10:35:38;16.27;;;11.95;;
68475;SDS011;55464;48.266;14.188;2023-04-08T10:38:12;13.98;;;10.20;;
68475;SDS011;55464;48.266;14.188;2023-04-08T10:40:38;16.08;;;10.50;;
68475;SDS011;55464;48.266;14.188;2023-04-08T10:43:06;14.63;;;10.70;;
68475;SDS011;55464;48.266;14.188;2023-04-08T10:45:36;13.98;;;10.90;;
68475;SDS011;55464;48.266;14.188;2023-04-08T10:51:05;16.05;;;10.85;;
68475;SDS011;55464;48.266;14.188;2023-04-08T10:53:31;14.75;;;10.68;;
68475;SDS011;55464;48.266;14.188;2023-04-08T10:58:30;15.82;;;10.27;;
68475;SDS011;55464;48.266;14.188;2023-04-08T11:01:01;14.77;;;11.00;;
68475;SDS011;55464;48.266;14.188;2023-04-08T11:03:27;17.25;;;11.98;;
68475;SDS011;55464;48.266;14.188;2023-04-08T11:05:53;14.90;;;11.40;;
68475;SDS011;55464;48.266;14.188;2023-04-08T11:08:26;14.90;;;10.82;;
68475;SDS011;55464;48.266;14.188;2023-04-08T11:10:53;16.83;;;11.77;;
68475;SDS011;55464;48.266;14.188;2023-04-08T11:13:19;16.52;;;11.68;;
68475;SDS011;55464;48.266;14.188;2023-04-08T11:15:45;17.77;;;11.57;;
68475;SDS011;55464;48.266;14.188;2023-04-08T11:18:11;16.05;;;11.05;;
68475;SDS011;55464;48.266;14.188;2023-04-08T11:20:37;16.70;;;11.98;;
68475;SDS011;55464;48.266;14.188;2023-04-08T11:23:04;15.60;;;10.90;;
68475;SDS011;55464;48.266;14.188;2023-04-08T11:25:37;16.50;;;11.43;;
68475;SDS011;55464;48.266;14.188;2023-04-08T11:28:04;17.65;;;11.43;;
68475;SDS011;55464;48.266;14.188;2023-04-08T11:30:30;18.95;;;11.52;;
68475;SDS011;55464;48.266;14.188;2023-04-08T11:32:57;16.70;;;12.20;;
68475;SDS011;55464;48.266;14.188;2023-04-08T11:35:22;16.98;;;11.85;;
68475;SDS011;55464;48.266;14.188;2023-04-08T11:37:48;16.75;;;12.43;;
68475;SDS011;55464;48.266;14.188;2023-04-08T11:40:18;18.42;;;12.93;;
68475;SDS011;55464;48.266;14.188;2023-04-08T11:42:45;16.80;;;11.02;;
68475;SDS011;55464;48.266;14.188;2023-04-08T11:45:11;16.08;;;10.95;;
68475;SDS011;55464;48.266;14.188;2023-04-08T11:47:38;14.13;;;10.52;;
68475;SDS011;55464;48.266;14.188;2023-04-08T11:50:04;14.18;;;10.80;;
68475;SDS011;55464;48.266;14.188;2023-04-08T11:52:41;15.38;;;10.27;;
68475;SDS011;55464;48.266;14.188;2023-04-08T11:55:50;12.77;;;9.88;;
68475;SDS011;55464;48.266;14.188;2023-04-08T11:58:03;20.05;;;11.75;;
68475;SDS011;55464;48.266;14.188;2023-04-08T12:00:30;14.82;;;10.80;;
68475;SDS011;55464;48.266;14.188;2023-04-08T12:02:57;15.57;;;11.05;;
68475;SDS011;55464;48.266;14.188;2023-04-08T12:05:22;15.90;;;10.88;;
68475;SDS011;55464;48.266;14.188;2023-04-08T12:07:48;14.45;;;10.60;;
68475;SDS011;55464;48.266;14.188;2023-04-08T12:10:13;14.45;;;10.77;;
68475;SDS011;55464;48.266;14.188;2023-04-08T12:12:39;17.48;;;11.00;;
68475;SDS011;55464;48.266;14.188;2023-04-08T12:15:05;15.80;;;9.82;;
68475;SDS011;55464;48.266;14.188;2023-04-08T12:17:32;13.40;;;9.55;;
68475;SDS011;55464;48.266;14.188;2023-04-08T12:19:58;11.50;;;9.05;;
68475;SDS011;55464;48.266;14.188;2023-04-08T12:22:23;12.65;;;8.80;;
68475;SDS011;55464;48.266;14.188;2023-04-08T12:24:49;12.15;;;9.13;;
68475;SDS011;55464;48.266;14.188;2023-04-08T12:27:14;11.48;;;7.68;;
68475;SDS011;55464;48.266;14.188;2023-04-08T12:29:40;11.85;;;8.18;;
68475;SDS011;55464;48.266;14.188;2023-04-08T12:32:05;11.10;;;7.80;;
68475;SDS011;55464;48.266;14.188;2023-04-08T12:34:31;12.48;;;8.35;;
68475;SDS011;55464;48.266;14.188;2023-04-08T12:36:57;10.77;;;7.65;;
68475;SDS011;55464;48.266;14.188;2023-04-08T12:39:22;12.32;;;7.90;;
68475;SDS011;55464;48.266;14.188;2023-04-08T12:41:48;9.68;;;7.85;;
68475;SDS011;55464;48.266;14.188;2023-04-08T12:44:13;10.98;;;7.88;;
68475;SDS011;55464;48.266;14.188;2023-04-08T12:46:39;10.25;;;7.65;;
68475;SDS011;55464;48.266;14.188;2023-04-08T12:49:04;8.32;;;6.88;;
68475;SDS011;55464;48.266;14.188;2023-04-08T12:51:30;9.95;;;8.05;;
68475;SDS011;55464;48.266;14.188;2023-04-08T12:53:56;11.50;;;8.35;;
68475;SDS011;55464;48.266;14.188;2023-04-08T12:56:21;9.73;;;7.35;;
68475;SDS011;55464;48.266;14.188;2023-04-08T12:58:47;10.30;;;7.35;;
68475;SDS011;55464;48.266;14.188;2023-04-08T13:01:12;8.15;;;6.85;;
68475;SDS011;55464;48.266;14.188;2023-04-08T13:03:38;10.23;;;7.22;;
68475;SDS011;55464;48.266;14.188;2023-04-08T13:06:03;12.48;;;8.10;;
68475;SDS011;55464;48.266;14.188;2023-04-08T13:08:29;11.60;;;8.32;;
68475;SDS011;55464;48.266;14.188;2023-04-08T13:10:54;10.13;;;8.27;;
68475;SDS011;55464;48.266;14.188;2023-04-08T13:13:20;11.57;;;8.32;;
68475;SDS011;55464;48.266;14.188;2023-04-08T13:15:45;10.38;;;7.85;;
68475;SDS011;55464;48.266;14.188;2023-04-08T13:18:11;8.80;;;6.47;;
68475;SDS011;55464;48.266;14.188;2023-04-08T13:20:36;9.55;;;7.50;;
68475;SDS011;55464;48.266;14.188;2023-04-08T13:23:02;10.43;;;7.90;;
68475;SDS011;55464;48.266;14.188;2023-04-08T13:25:27;10.57;;;7.93;;
68475;SDS011;55464;48.266;14.188;2023-04-08T13:27:53;11.10;;;7.95;;
68475;SDS011;55464;48.266;14.188;2023-04-08T13:30:18;9.07;;;7.35;;
68475;SDS011;55464;48.266;14.188;2023-04-08T13:32:43;9.65;;;7.30;;
68475;SDS011;55464;48.266;14.188;2023-04-08T13:35:09;10.65;;;7.93;;
68475;SDS011;55464;48.266;14.188;2023-04-08T13:37:35;10.43;;;7.40;;
68475;SDS011;55464;48.266;14.188;2023-04-08T13:40:00;8.30;;;6.53;;
68475;SDS011;55464;48.266;14.188;2023-04-08T13:42:26;9.38;;;6.68;;
68475;SDS011;55464;48.266;14.188;2023-04-08T13:44:51;8.73;;;6.63;;
68475;SDS011;55464;48.266;14.188;2023-04-08T13:47:17;10.07;;;6.35;;
68475;SDS011;55464;48.266;14.188;2023-04-08T13:49:42;9.00;;;7.18;;
68475;SDS011;55464;48.266;14.188;2023-04-08T13:52:08;8.85;;;6.85;;
68475;SDS011;55464;48.266;14.188;2023-04-08T13:54:34;8.75;;;6.50;;
68475;SDS011;55464;48.266;14.188;2023-04-08T13:56:59;8.98;;;6.22;;
68475;SDS011;55464;48.266;14.188;2023-04-08T13:59:25;16.60;;;11.88;;
68475;SDS011;55464;48.266;14.188;2023-04-08T14:01:50;35.03;;;19.33;;
68475;SDS011;55464;48.266;14.188;2023-04-08T14:04:18;48.10;;;24.80;;
68475;SDS011;55464;48.266;14.188;2023-04-08T14:06:45;25.05;;;16.42;;
68475;SDS011;55464;48.266;14.188;2023-04-08T14:09:10;19.67;;;13.48;;
68475;SDS011;55464;48.266;14.188;2023-04-08T14:11:36;21.50;;;15.23;;
68475;SDS011;55464;48.266;14.188;2023-04-08T14:14:01;13.43;;;9.80;;
68475;SDS011;55464;48.266;14.188;2023-04-08T14:16:27;11.95;;;9.90;;
68475;SDS011;55464;48.266;14.188;2023-04-08T14:18:55;14.77;;;11.60;;
68475;SDS011;55464;48.266;14.188;2023-04-08T14:21:21;98.85;;;56.00;;
68475;SDS011;55464;48.266;14.188;2023-04-08T14:23:46;292.27;;;175.85;;
68475;SDS011;55464;48.266;14.188;2023-04-08T14:26:12;153.40;;;95.82;;
68475;SDS011;55464;48.266;14.188;2023-04-08T14:28:37;42.30;;;31.38;;
68475;SDS011;55464;48.266;14.188;2023-04-08T14:31:03;34.17;;;30.42;;
68475;SDS011;55464;48.266;14.188;2023-04-08T14:33:28;23.23;;;19.60;;
68475;SDS011;55464;48.266;14.188;2023-04-08T14:35:54;17.98;;;16.08;;
68475;SDS011;55464;48.266;14.188;2023-04-08T14:38:20;12.38;;;11.18;;
68475;SDS011;55464;48.266;14.188;2023-04-08T14:40:45;20.90;;;18.23;;
68475;SDS011;55464;48.266;14.188;2023-04-08T14:43:10;23.98;;;19.65;;
68475;SDS011;55464;48.266;14.188;2023-04-08T14:45:37;19.15;;;15.93;;
68475;SDS011;55464;48.266;14.188;2023-04-08T14:48:02;11.70;;;8.93;;